Time;durP1;ratioP1;P1;durP2;ratioP2;P2;SDS_P1;SDS_P2;PMS_P1;PMS_P2;Temp;Humidity;BMP_temperature;BMP_pressure;BME280_temperature;BME280_humidity;BME280_pressure;Samples;Min_cycle;Max_cycle;Signal;HPM_P1;HPM_P2
2023/04/14 00:00:39;;;;;;;3.47;2.22;;;;;;;7.41;68.14;99324.66;5039283;28;20100;-45
2023/04/14 00:03:07;;;;;;;8.88;2.67;;;;;;;7.36;68.57;99324.91;5030130;28;20500;-44
2023/04/14 00:05:34;;;;;;;11.35;3.10;;;;;;;7.31;68.62;99330.69;5029473;28;20051;-45
2023/04/14 00:08:02;;;;;;;8.25;3.65;;;;;;;7.27;68.72;99332.56;5012585;28;20103;-44
2023/04/14 00:10:29;;;;;;;8.68;3.55;;;;;;;7.22;68.77;99335.59;5039110;28;20060;-44
2023/04/14 00:12:55;;;;;;;14.85;3.78;;;;;;;7.16;68.85;99326.00;5030023;28;20038;-48
2023/04/14 00:15:22;;;;;;;9.13;3.20;;;;;;;7.12;69.11;99327.91;5030856;28;20109;-46
2023/04/14 00:17:50;;;;;;;6.72;2.85;;;;;;;7.12;68.96;99333.41;5030060;28;20042;-46
2023/04/14 00:20:17;;;;;;;10.55;3.00;;;;;;;7.10;69.10;99319.97;5030105;28;20054;-43
2023/04/14 00:22:44;;;;;;;9.05;3.67;;;;;;;7.09;69.19;99325.84;5029889;28;20073;-46
2023/04/14 00:25:11;;;;;;;10.18;4.30;;;;;;;7.07;69.28;99323.44;5030094;28;20079;-45
2023/04/14 00:27:38;;;;;;;7.47;3.75;;;;;;;7.08;69.31;99318.75;5031334;28;20487;-47
2023/04/14 00:30:05;;;;;;;6.55;3.03;;;;;;;7.09;69.31;99323.09;5029591;28;20049;-46
2023/04/14 00:32:34;;;;;;;7.75;2.80;;;;;;;7.08;69.59;99321.50;5029988;28;20511;-45
2023/04/14 00:35:02;;;;;;;7.13;3.22;;;;;;;7.08;69.55;99325.03;5029889;28;20456;-47
2023/04/14 00:37:29;;;;;;;6.60;2.75;;;;;;;7.09;69.49;99323.91;5016428;28;20403;-46
2023/04/14 00:39:56;;;;;;;3.97;2.58;;;;;;;7.08;69.80;99327.78;5029591;28;20485;-48
2023/04/14 00:42:24;;;;;;;6.72;2.85;;;;;;;7.04;70.02;99326.13;5029613;28;20057;-48
2023/04/14 00:44:53;;;;;;;8.75;2.88;;;;;;;7.00;70.05;99319.72;5029940;28;20054;-45
2023/04/14 00:47:21;;;;;;;6.18;2.53;;;;;;;6.99;69.98;99326.41;5029540;28;20408;-48
2023/04/14 00:49:49;;;;;;;7.97;2.63;;;;;;;6.97;70.25;99318.47;5036667;28;20037;-52
2023/04/14 00:52:18;;;;;;;6.72;2.15;;;;;;;6.97;70.33;99325.94;5029398;28;20046;-47
2023/04/14 00:54:45;;;;;;;7.10;2.90;;;;;;;6.97;70.15;99329.47;5029467;28;20056;-50
2023/04/14 00:57:12;;;;;;;5.68;2.17;;;;;;;7.00;70.21;99322.47;5031015;28;20045;-46
2023/04/14 00:59:39;;;;;;;5.32;1.63;;;;;;;7.00;70.16;99316.97;5033623;28;20037;-45
2023/04/14 01:02:06;;;;;;;7.05;1.52;;;;;;;6.97;70.18;99317.69;5029346;28;20134;-44
2023/04/14 01:04:35;;;;;;;6.93;1.45;;;;;;;6.91;70.06;99316.38;5029452;28;20092;-46
2023/04/14 01:07:20;;;;;;;4.93;2.63;;;;;;;6.83;70.08;99315.38;5021267;28;20050;-44
2023/04/14 01:09:47;;;;;;;4.85;1.20;;;;;;;6.80;70.35;99310.59;5011894;28;20042;-44
2023/04/14 01:12:45;;;;;;;3.72;1.25;;;;;;;6.78;70.40;99309.34;5011448;28;20053;-45
2023/04/14 01:15:37;;;;;;;2.78;1.08;;;;;;;6.74;70.51;99315.56;5029591;28;20049;-45
2023/04/14 01:18:18;;;;;;;5.43;0.68;;;;;;;6.72;70.30;99301.34;5016946;28;20041;-44
2023/04/14 01:20:55;;;;;;;2.08;1.08;;;;;;;6.69;70.56;99306.78;5029354;28;20075;-51
2023/04/14 01:23:31;;;;;;;3.70;1.00;;;;;;;6.64;70.47;99305.09;5036477;28;20053;-43
2023/04/14 01:26:19;;;;;;;4.85;1.30;;;;;;;6.62;70.88;99307.38;5029980;28;20053;-44
2023/04/14 01:28:59;;;;;;;5.05;1.00;;;;;;;6.61;70.61;99299.50;5029167;28;20481;-44
2023/04/14 01:31:47;;;;;;;2.50;0.70;;;;;;;6.63;70.51;99295.25;5029006;28;20049;-44
2023/04/14 01:34:32;;;;;;;2.92;1.38;;;;;;;6.63;70.74;99303.50;5029161;28;20454;-44
2023/04/14 01:37:15;;;;;;;2.53;1.13;;;;;;;6.59;70.76;99302.59;5028973;28;20095;-45
2023/04/14 01:39:51;;;;;;;3.75;1.25;;;;;;;6.61;70.86;99303.06;5029559;28;20060;-44
2023/04/14 01:42:25;;;;;;;3.78;1.77;;;;;;;6.60;70.71;99303.38;5016139;28;20042;-43
2023/04/14 01:44:57;;;;;;;5.50;1.00;;;;;;;6.53;70.82;99304.03;5028843;28;20519;-45
2023/04/14 01:47:25;;;;;;;3.92;1.00;;;;;;;6.51;70.79;99308.28;5028348;28;20075;-43
2023/04/14 01:49:54;;;;;;;2.80;0.98;;;;;;;6.43;70.94;99298.25;5028654;28;20049;-45
2023/04/14 01:52:22;;;;;;;4.78;0.82;;;;;;;6.35;71.28;99297.25;5028539;28;20055;-45
2023/04/14 01:54:52;;;;;;;1.33;1.17;;;;;;;6.28;71.31;99305.28;5028518;28;20053;-45
2023/04/14 01:57:21;;;;;;;2.67;0.80;;;;;;;6.21;71.57;99296.06;5033912;28;20408;-45
2023/04/14 01:59:54;;;;;;;2.50;0.77;;;;;;;6.14;71.91;99296.69;5028646;28;20049;-43
2023/04/14 02:02:23;;;;;;;7.18;1.23;;;;;;;6.11;72.14;99300.94;5028263;28;20127;-48
2023/04/14 02:04:52;;;;;;;3.53;0.93;;;;;;;6.11;71.94;99286.38;5011258;28;20049;-45
2023/04/14 02:07:20;;;;;;;2.40;1.27;;;;;;;6.08;72.10;99298.06;5028243;28;20492;-45
2023/04/14 02:09:49;;;;;;;4.97;1.25;;;;;;;6.02;72.15;99293.97;5028430;28;20050;-51
2023/04/14 02:12:18;;;;;;;3.75;1.00;;;;;;;5.95;72.17;99293.78;5028537;28;20403;-44
2023/04/14 02:14:46;;;;;;;8.45;1.52;;;;;;;5.93;72.45;99302.34;5028746;28;20033;-48
2023/04/14 02:17:18;;;;;;;2.97;1.50;;;;;;;5.93;72.69;99290.59;5028562;28;20157;-45
2023/04/14 02:19:47;;;;;;;6.40;1.83;;;;;;;5.88;72.69;99294.38;5028521;28;20045;-46
2023/04/14 02:22:15;;;;;;;4.60;1.30;;;;;;;5.85;72.59;99294.28;5028700;28;20053;-44
2023/04/14 02:24:42;;;;;;;4.28;1.40;;;;;;;5.81;73.09;99288.66;5010605;28;20065;-49
2023/04/14 02:27:21;;;;;;;4.28;1.80;;;;;;;5.78;73.22;99283.06;5005761;28;20148;-44
2023/04/14 02:29:52;;;;;;;6.55;1.75;;;;;;;5.77;73.09;99284.22;5032026;28;20045;-44
2023/04/14 02:32:24;;;;;;;5.22;2.35;;;;;;;5.74;73.30;99285.72;5032187;28;20072;-45
2023/04/14 02:34:58;;;;;;;21.08;3.80;;;;;;;5.71;73.42;99283.66;5032557;28;20049;-44
2023/04/14 02:37:30;;;;;;;11.13;2.08;;;;;;;5.69;73.50;99296.13;5031973;28;20082;-45
2023/04/14 02:40:05;;;;;;;7.32;2.55;;;;;;;5.66;73.82;99289.41;5031876;28;20057;-44
2023/04/14 02:42:36;;;;;;;10.30;2.35;;;;;;;5.66;73.68;99289.41;5032072;28;20057;-54
2023/04/14 02:45:08;;;;;;;8.52;3.22;;;;;;;5.65;73.89;99296.03;5031851;28;20111;-53
2023/04/14 02:47:39;;;;;;;9.88;3.42;;;;;;;5.64;73.99;99283.44;5014850;28;20084;-53
2023/04/14 02:50:11;;;;;;;9.32;3.53;;;;;;;5.64;73.79;99296.38;5030991;28;20144;-44
2023/04/14 02:52:39;;;;;;;3.55;2.00;;;;;;;5.64;74.05;99293.63;5031764;28;20037;-44
2023/04/14 02:55:09;;;;;;;11.15;3.30;;;;;;;5.65;73.80;99292.47;5031746;28;20049;-44
2023/04/14 02:57:37;;;;;;;8.82;4.07;;;;;;;5.63;73.89;99286.53;5031715;28;20095;-53
2023/04/14 03:00:05;;;;;;;6.78;3.20;;;;;;;5.61;74.09;99288.84;5031094;28;20130;-45
2023/04/14 03:02:34;;;;;;;4.53;2.53;;;;;;;5.60;74.25;99277.06;5123931;22;20057;-45
2023/04/14 03:05:03;;;;;;;9.48;2.42;;;;;;;5.58;74.22;99279.34;5057090;28;20052;-46
2023/04/14 03:07:30;;;;;;;7.65;1.85;;;;;;;5.59;74.67;99274.66;5057945;28;20052;-45
2023/04/14 03:09:58;;;;;;;3.33;2.20;;;;;;;5.56;74.37;99276.13;5038282;28;20402;-50
2023/04/14 03:12:26;;;;;;;6.40;2.83;;;;;;;5.54;74.50;99284.72;5050972;28;20083;-46
2023/04/14 03:14:55;;;;;;;5.28;1.85;;;;;;;5.51;74.39;99279.94;5058500;28;20043;-45
2023/04/14 03:17:26;;;;;;;4.53;2.03;;;;;;;5.47;74.85;99273.56;5039777;28;20044;-48
2023/04/14 03:19:54;;;;;;;6.90;2.33;;;;;;;5.46;75.07;99271.94;5062885;28;20045;-52
2023/04/14 03:22:26;;;;;;;4.35;1.98;;;;;;;5.46;74.83;99274.69;5053314;28;20045;-45
2023/04/14 03:24:57;;;;;;;5.28;2.00;;;;;;;5.44;74.69;99271.50;5063000;28;20151;-47
2023/04/14 03:27:26;;;;;;;3.85;2.78;;;;;;;5.46;74.81;99271.94;5062632;28;20051;-45
2023/04/14 03:29:57;;;;;;;2.35;1.83;;;;;;;5.47;75.15;99275.50;5061931;28;20043;-49
2023/04/14 03:32:28;;;;;;;6.40;1.60;;;;;;;5.45;75.05;99259.34;5065973;28;20072;-45
2023/04/14 03:35:00;;;;;;;5.80;2.25;;;;;;;5.48;75.09;99266.13;5046106;28;20044;-47
2023/04/14 03:37:30;;;;;;;5.88;3.55;;;;;;;5.49;75.13;99270.44;5057004;28;20040;-45
2023/04/14 03:40:03;;;;;;;3.15;1.45;;;;;;;5.48;75.22;99274.34;5064365;28;20498;-45
2023/04/14 03:42:36;;;;;;;4.10;1.70;;;;;;;5.46;74.99;99265.66;5062545;28;20045;-45
2023/04/14 03:45:06;;;;;;;4.93;1.60;;;;;;;5.44;74.89;99263.25;5050578;28;20158;-45
2023/04/14 03:47:34;;;;;;;2.35;1.90;;;;;;;5.42;74.98;99264.75;5060177;28;20505;-45
2023/04/14 03:50:03;;;;;;;3.72;1.67;;;;;;;5.40;75.32;99258.81;5066879;28;20045;-45
2023/04/14 03:52:34;;;;;;;2.90;1.50;;;;;;;5.39;75.40;99270.94;5049260;28;20051;-45
2023/04/14 03:55:05;;;;;;;4.00;1.55;;;;;;;5.36;75.26;99266.13;5061021;28;20041;-48
2023/04/14 03:57:35;;;;;;;6.13;1.95;;;;;;;5.33;75.47;99270.38;5059452;28;20175;-45
2023/04/14 04:00:07;;;;;;;3.42;1.85;;;;;;;5.28;75.45;99272.56;5062428;28;20098;-45
2023/04/14 04:02:36;;;;;;;1.67;1.40;;;;;;;5.26;75.54;99269.38;5044568;28;20052;-45
2023/04/14 04:05:08;;;;;;;3.08;1.77;;;;;;;5.23;75.80;99270.03;5090018;28;20044;-45
2023/04/14 04:07:39;;;;;;;7.32;1.38;;;;;;;5.19;75.82;99267.19;5089540;28;20101;-45
2023/04/14 04:10:07;;;;;;;5.63;1.98;;;;;;;5.11;75.57;99265.38;5069734;28;20036;-45
2023/04/14 04:12:37;;;;;;;2.85;1.75;;;;;;;5.09;75.84;99267.66;5076023;28;20052;-45
2023/04/14 04:15:05;;;;;;;2.60;1.67;;;;;;;5.06;76.31;99264.81;5078206;28;20131;-53
2023/04/14 04:17:33;;;;;;;8.82;2.78;;;;;;;5.06;76.00;99262.84;5071439;28;20098;-45
2023/04/14 04:20:05;;;;;;;6.45;1.30;;;;;;;5.04;76.01;99258.88;5090045;28;20089;-45
2023/04/14 04:22:36;;;;;;;3.75;1.73;;;;;;;5.03;76.42;99265.50;5089838;28;20127;-47
2023/04/14 04:25:06;;;;;;;1.88;1.50;;;;;;;5.02;76.01;99264.72;5081789;28;20101;-45
2023/04/14 04:27:33;;;;;;;5.32;2.13;;;;;;;5.00;76.05;99261.53;5089837;28;20119;-46
2023/04/14 04:30:00;;;;;;;2.33;1.52;;;;;;;4.97;75.96;99264.94;5089285;28;20554;-45
2023/04/14 04:32:28;;;;;;;6.00;2.13;;;;;;;4.95;76.26;99263.69;5089683;28;20044;-49
2023/04/14 04:34:56;;;;;;;5.10;1.80;;;;;;;4.96;76.32;99268.00;5071877;28;20058;-47
2023/04/14 04:37:27;;;;;;;2.75;1.63;;;;;;;4.91;76.04;99271.78;5088665;28;20055;-45
2023/04/14 04:39:57;;;;;;;5.38;2.13;;;;;;;4.89;76.61;99271.34;5090038;28;20052;-45
2023/04/14 04:42:24;;;;;;;4.88;2.30;;;;;;;4.86;76.32;99274.78;5089334;28;20040;-47
2023/04/14 04:44:51;;;;;;;6.18;2.20;;;;;;;4.80;76.60;99267.91;5082040;28;20028;-47
2023/04/14 04:47:18;;;;;;;3.42;1.60;;;;;;;4.76;76.90;99264.25;5053909;28;20051;-45
2023/04/14 04:49:45;;;;;;;4.93;2.03;;;;;;;4.73;76.67;99259.47;5089483;28;20051;-46
2023/04/14 04:52:12;;;;;;;5.30;2.08;;;;;;;4.71;76.84;99264.50;5089164;28;20405;-45
2023/04/14 04:54:41;;;;;;;3.75;1.70;;;;;;;4.62;76.89;99258.31;5080091;28;20088;-47
2023/04/14 04:57:08;;;;;;;7.28;1.95;;;;;;;4.57;76.74;99270.31;5089648;28;20040;-45
2023/04/14 04:59:37;;;;;;;5.93;1.88;;;;;;;4.54;76.66;99261.97;5089318;28;20032;-45
2023/04/14 05:02:05;;;;;;;2.85;1.75;;;;;;;4.54;77.15;99273.72;5089723;28;20052;-48
2023/04/14 05:04:32;;;;;;;3.58;1.35;;;;;;;4.50;77.33;99277.50;5089386;28;20048;-45
2023/04/14 05:07:01;;;;;;;6.25;2.55;;;;;;;4.48;77.08;99274.28;5089901;28;20431;-45
2023/04/14 05:09:28;;;;;;;3.05;1.48;;;;;;;4.49;77.35;99265.72;5089027;28;20465;-50
2023/04/14 05:11:57;;;;;;;4.53;2.10;;;;;;;4.51;76.98;99268.13;5079954;28;20048;-45
2023/04/14 05:14:25;;;;;;;2.15;1.77;;;;;;;4.49;77.21;99275.88;5081378;28;20481;-45
2023/04/14 05:16:53;;;;;;;9.90;2.30;;;;;;;4.43;77.11;99274.50;5078437;28;20040;-45
2023/04/14 05:19:20;;;;;;;4.95;1.73;;;;;;;4.42;77.52;99275.66;5072054;28;20489;-48
2023/04/14 05:21:47;;;;;;;3.47;1.50;;;;;;;4.39;77.40;99281.81;5081211;28;20143;-46
2023/04/14 05:24:14;;;;;;;5.82;1.63;;;;;;;4.34;77.62;99280.09;5088236;28;20044;-47
2023/04/14 05:26:43;;;;;;;2.70;1.48;;;;;;;4.31;77.80;99281.53;5085438;28;20123;-45
2023/04/14 05:29:30;;;;;;;3.50;1.95;;;;;;;4.27;77.38;99286.13;5073890;28;20064;-45
2023/04/14 05:31:57;;;;;;;4.18;1.83;;;;;;;4.23;77.47;99279.72;5089011;28;20140;-45
2023/04/14 05:34:24;;;;;;;4.68;1.48;;;;;;;4.22;77.55;99293.75;5089036;28;20552;-46
2023/04/14 05:36:51;;;;;;;9.82;1.70;;;;;;;4.22;78.00;99288.28;5074586;28;20472;-45
2023/04/14 05:39:20;;;;;;;6.15;2.03;;;;;;;4.18;77.87;99296.34;5088743;28;20040;-47
2023/04/14 05:41:47;;;;;;;5.85;2.10;;;;;;;4.20;78.17;99304.25;5088651;28;20048;-47
2023/04/14 05:44:14;;;;;;;7.07;1.50;;;;;;;4.16;78.28;99300.56;5064907;28;20048;-48
2023/04/14 05:46:41;;;;;;;6.55;2.28;;;;;;;4.16;77.94;99306.84;5088532;28;20139;-47
2023/04/14 05:49:09;;;;;;;6.40;1.95;;;;;;;4.16;78.08;99309.59;5088966;28;20040;-45
2023/04/14 05:51:36;;;;;;;7.00;1.70;;;;;;;4.14;77.96;99309.13;5088387;28;20142;-45
2023/04/14 05:54:05;;;;;;;2.78;1.77;;;;;;;4.16;78.10;99306.03;5083754;28;20043;-46
2023/04/14 05:56:35;;;;;;;3.22;2.00;;;;;;;4.16;78.22;99309.59;5084795;28;20055;-45
2023/04/14 05:59:02;;;;;;;6.80;2.33;;;;;;;4.16;77.95;99323.28;5089149;28;20459;-45
2023/04/14 06:01:29;;;;;;;4.68;1.90;;;;;;;4.17;78.11;99324.91;5083804;28;20504;-46
2023/04/14 06:03:59;;;;;;;8.02;2.25;;;;;;;4.18;78.23;99331.19;5081557;28;20056;-45
2023/04/14 06:06:27;;;;;;;6.90;2.10;;;;;;;4.19;78.04;99330.03;5087734;28;20041;-45
2023/04/14 06:08:54;;;;;;;6.30;1.90;;;;;;;4.17;78.46;99332.31;5084013;28;20046;-45
2023/04/14 06:11:22;;;;;;;5.68;1.48;;;;;;;4.19;78.46;99332.78;5091117;28;20040;-45
2023/04/14 06:13:49;;;;;;;5.80;2.47;;;;;;;4.20;78.36;99329.72;5088624;28;20065;-47
2023/04/14 06:16:15;;;;;;;4.90;2.10;;;;;;;4.25;78.19;99334.16;5092857;28;20043;-45
2023/04/14 06:18:42;;;;;;;7.35;2.10;;;;;;;4.28;78.51;99353.47;5079441;28;20052;-45
2023/04/14 06:21:10;;;;;;;4.05;1.80;;;;;;;4.29;78.32;99344.09;5091767;28;20036;-45
2023/04/14 06:23:38;;;;;;;6.68;2.22;;;;;;;4.33;78.68;99349.72;5092306;28;20063;-45
2023/04/14 06:26:05;;;;;;;5.55;1.85;;;;;;;4.35;78.45;99363.88;5087033;28;20056;-45
2023/04/14 06:28:32;;;;;;;5.93;2.00;;;;;;;4.42;78.53;99360.59;5084350;28;20058;-46
2023/04/14 06:30:59;;;;;;;4.22;1.88;;;;;;;4.47;78.30;99365.88;5065485;28;20109;-48
2023/04/14 06:33:26;;;;;;;6.70;2.40;;;;;;;4.50;78.33;99365.97;5073910;28;20081;-45
2023/04/14 06:35:53;;;;;;;5.22;1.75;;;;;;;4.56;78.26;99364.63;5092167;28;20040;-49
2023/04/14 06:38:20;;;;;;;15.35;3.13;;;;;;;4.64;78.23;99371.16;5073506;28;20040;-45
2023/04/14 06:40:47;;;;;;;3.78;1.83;;;;;;;4.69;78.61;99377.22;5092095;28;20048;-44
2023/04/14 06:43:16;;;;;;;9.90;2.33;;;;;;;4.72;78.07;99373.00;5088453;28;20077;-45
2023/04/14 06:45:43;;;;;;;4.45;2.38;;;;;;;4.77;77.90;99378.25;5090967;28;20039;-45
2023/04/14 06:48:12;;;;;;;8.13;2.28;;;;;;;4.82;78.24;99380.78;5091563;28;20126;-46
2023/04/14 06:50:39;;;;;;;5.10;2.97;;;;;;;4.87;77.91;99386.06;5091209;28;20043;-51
2023/04/14 06:53:08;;;;;;;4.85;1.75;;;;;;;4.90;78.10;99383.41;5075783;28;20094;-46
2023/04/14 06:55:40;;;;;;;5.65;2.20;;;;;;;4.96;77.99;99394.97;5091882;28;20141;-45
2023/04/14 06:58:07;;;;;;;6.38;1.95;;;;;;;5.01;77.85;99397.50;5073512;28;20131;-45
2023/04/14 07:00:35;;;;;;;4.07;2.00;;;;;;;5.05;77.75;99403.91;5091505;28;20114;-52
2023/04/14 07:03:04;;;;;;;8.55;1.85;;;;;;;5.11;77.76;99408.00;5075021;28;20109;-45
2023/04/14 07:05:34;;;;;;;5.03;2.22;;;;;;;5.15;77.40;99403.47;5091417;28;20093;-47
2023/04/14 07:08:01;;;;;;;5.80;2.35;;;;;;;5.20;77.63;99405.97;5091007;28;20040;-52
2023/04/14 07:10:30;;;;;;;4.85;1.90;;;;;;;5.23;77.26;99415.47;5091712;28;20071;-45
2023/04/14 07:12:57;;;;;;;12.63;2.17;;;;;;;5.26;77.02;99410.09;5091367;28;20036;-47
2023/04/14 07:15:24;;;;;;;6.32;1.80;;;;;;;5.30;77.50;99416.50;5072507;28;20142;-45
2023/04/14 07:17:52;;;;;;;5.53;2.17;;;;;;;5.33;77.15;99418.56;5091032;28;20051;-45
2023/04/14 07:20:19;;;;;;;7.93;1.92;;;;;;;5.34;76.99;99417.41;5088555;28;20508;-47
2023/04/14 07:22:48;;;;;;;4.97;2.08;;;;;;;5.35;77.08;99427.25;5090495;28;20119;-49
2023/04/14 07:25:15;;;;;;;5.68;1.58;;;;;;;5.37;77.36;99429.66;5086222;28;20047;-46
2023/04/14 07:27:43;;;;;;;7.63;1.95;;;;;;;5.39;77.08;99430.91;5046888;28;20056;-45
2023/04/14 07:30:28;;;;;;;7.32;2.13;;;;;;;5.41;77.01;99434.09;5088736;28;20497;-45
2023/04/14 07:32:55;;;;;;;5.18;1.90;;;;;;;5.44;76.98;99444.41;5079979;28;20043;-45
2023/04/14 07:35:25;;;;;;;7.13;2.00;;;;;;;5.47;77.08;99432.75;5090764;28;20051;-45
2023/04/14 07:37:51;;;;;;;5.65;1.67;;;;;;;5.50;77.13;99443.03;5070303;28;20072;-48
2023/04/14 07:40:19;;;;;;;9.20;2.05;;;;;;;5.53;77.06;99442.34;5084265;28;20121;-46
2023/04/14 07:42:46;;;;;;;5.95;2.20;;;;;;;5.56;77.05;99440.84;5080875;28;20071;-48
2023/04/14 07:45:13;;;;;;;7.47;1.52;;;;;;;5.60;77.24;99444.53;5076972;28;20053;-45
2023/04/14 07:47:40;;;;;;;4.22;2.85;;;;;;;5.66;77.17;99445.09;5082764;28;20044;-45
2023/04/14 07:50:09;;;;;;;11.63;2.92;;;;;;;5.76;77.23;99459.16;5090655;28;20052;-46
2023/04/14 07:52:36;;;;;;;14.70;1.90;;;;;;;5.89;77.03;99463.53;5089326;28;20044;-46
2023/04/14 07:55:03;;;;;;;4.57;1.27;;;;;;;6.06;76.92;99465.22;5085779;28;20633;-46
2023/04/14 07:57:33;;;;;;;3.83;1.48;;;;;;;6.26;76.71;99458.75;5090414;28;20044;-46
2023/04/14 08:00:00;;;;;;;6.13;1.60;;;;;;;6.38;76.78;99461.47;5084184;28;20040;-49
2023/04/14 08:02:27;;;;;;;9.07;1.98;;;;;;;6.48;76.52;99454.69;5062102;28;20087;-52
2023/04/14 08:04:54;;;;;;;6.85;1.40;;;;;;;6.51;76.49;99460.25;5035799;28;20044;-45
2023/04/14 08:07:21;;;;;;;14.52;2.90;;;;;;;6.58;76.45;99454.19;5049216;28;20402;-46
2023/04/14 08:09:48;;;;;;;7.00;1.70;;;;;;;6.66;76.50;99462.28;5035922;28;20037;-45
2023/04/14 08:12:15;;;;;;;5.35;1.60;;;;;;;6.78;76.52;99471.66;5050530;28;20049;-48
2023/04/14 08:14:42;;;;;;;5.07;1.38;;;;;;;6.95;76.47;99474.06;5062802;28;20132;-45
2023/04/14 08:17:09;;;;;;;2.28;1.00;;;;;;;7.14;76.45;99477.75;5042274;28;20517;-46
2023/04/14 08:19:46;;;;;;;2.97;1.17;;;;;;;7.32;76.27;99472.69;5037549;28;20045;-46
2023/04/14 08:22:13;;;;;;;3.33;1.65;;;;;;;7.48;76.56;99487.28;5063199;28;20043;-46
2023/04/14 08:24:40;;;;;;;6.15;1.33;;;;;;;7.64;76.61;99482.56;5049770;28;20380;-49
2023/04/14 08:27:07;;;;;;;5.15;1.50;;;;;;;7.79;76.50;99492.75;5052509;28;20098;-46
2023/04/14 08:29:34;;;;;;;3.40;1.67;;;;;;;7.94;76.69;99500.22;5069445;28;20048;-45
2023/04/14 08:32:01;;;;;;;6.53;1.75;;;;;;;8.13;76.52;99501.44;5069601;28;20101;-46
2023/04/14 08:34:28;;;;;;;4.43;2.33;;;;;;;8.36;77.50;99499.63;5064752;28;20474;-47
2023/04/14 08:36:55;;;;;;;3.95;1.25;;;;;;;8.65;78.39;99501.84;5069718;28;20137;-46
2023/04/14 08:39:23;;;;;;;2.90;1.45;;;;;;;9.02;79.08;99503.00;5050862;28;20064;-46
2023/04/14 08:41:52;;;;;;;4.28;2.15;;;;;;;9.41;79.43;99511.19;5014915;28;20722;-48
2023/04/14 08:44:21;;;;;;;3.47;1.10;;;;;;;10.13;79.66;99512.84;5017482;28;20053;-49
2023/04/14 08:46:53;;;;;;;3.33;1.20;;;;;;;10.93;77.81;99519.88;5017841;28;20050;-49
2023/04/14 08:49:28;;;;;;;4.10;1.42;;;;;;;11.23;76.23;99523.38;5019941;28;20676;-52
2023/04/14 08:52:01;;;;;;;12.52;1.90;;;;;;;11.36;74.54;99527.47;5018693;28;20132;-53
2023/04/14 08:54:29;;;;;;;5.95;1.15;;;;;;;11.26;73.01;99538.44;5019249;28;20179;-47
2023/04/14 08:56:59;;;;;;;6.68;1.58;;;;;;;11.05;71.67;99544.53;5015599;28;20045;-49
2023/04/14 08:59:27;;;;;;;5.28;0.98;;;;;;;11.01;71.00;99547.25;5020804;28;20169;-46
2023/04/14 09:01:55;;;;;;;5.47;1.40;;;;;;;11.07;69.87;99553.25;5028830;28;20493;-47
2023/04/14 09:04:23;;;;;;;9.98;2.15;;;;;;;11.32;69.19;99551.59;5062909;28;20419;-46
2023/04/14 09:06:51;;;;;;;4.72;1.25;;;;;;;11.76;67.92;99557.22;5063688;28;20141;-46
2023/04/14 09:09:20;;;;;;;7.90;1.42;;;;;;;12.11;66.93;99567.81;5064232;28;20055;-47
2023/04/14 09:11:47;;;;;;;8.00;1.98;;;;;;;12.78;65.93;99569.09;5063546;28;20090;-46
2023/04/14 09:14:17;;;;;;;3.65;1.00;;;;;;;13.88;63.75;99566.69;5045342;28;20054;-46
2023/04/14 09:16:47;;;;;;;8.50;1.85;;;;;;;14.16;61.87;99577.06;5063900;28;20044;-49
2023/04/14 09:19:16;;;;;;;4.70;1.25;;;;;;;13.89;61.22;99582.22;5065302;28;20045;-47
2023/04/14 09:21:45;;;;;;;6.80;1.52;;;;;;;13.62;60.96;99579.00;5063527;28;20168;-49
2023/04/14 09:24:22;;;;;;;9.77;1.92;;;;;;;13.67;60.32;99586.94;5063588;28;20147;-48
2023/04/14 09:26:50;;;;;;;9.05;1.63;;;;;;;13.89;59.76;99588.59;5063626;28;20581;-52
2023/04/14 09:29:17;;;;;;;9.40;2.08;;;;;;;14.60;58.37;99596.97;5044269;28;20071;-49
2023/04/14 09:31:46;;;;;;;10.77;3.15;;;;;;;15.04;56.62;99591.69;5062407;28;20045;-51
2023/04/14 09:34:17;;;;;;;7.65;1.65;;;;;;;14.96;55.63;99589.31;5062757;28;20047;-50
2023/04/14 09:37:05;;;;;;;5.82;1.50;;;;;;;14.70;55.42;99604.50;5061978;28;20060;-50
2023/04/14 09:39:33;;;;;;;3.53;0.93;;;;;;;14.78;54.11;99597.72;5062524;28;20516;-46
2023/04/14 09:42:03;;;;;;;9.98;1.58;;;;;;;15.18;52.68;99611.16;5063226;28;20509;-46
2023/04/14 09:44:30;;;;;;;5.53;1.08;;;;;;;15.27;51.58;99605.16;5063698;28;20387;-46
2023/04/14 09:46:59;;;;;;;4.45;1.15;;;;;;;15.15;50.59;99609.19;5064023;28;20437;-46
2023/04/14 09:49:28;;;;;;;4.28;0.82;;;;;;;15.42;50.29;99605.88;5062907;28;20040;-48
2023/04/14 09:52:35;;;;;;;8.65;1.75;;;;;;;16.31;49.59;99599.38;5062721;28;20037;-46
2023/04/14 09:55:11;;;;;;;5.68;1.48;;;;;;;17.10;47.67;99605.84;5062735;28;20037;-50
2023/04/14 09:57:50;;;;;;;5.82;1.02;;;;;;;17.44;46.80;99612.22;5062318;28;20086;-47
2023/04/14 10:00:23;;;;;;;4.95;1.02;;;;;;;17.70;45.49;99615.50;5046017;28;20486;-47
2023/04/14 10:02:54;;;;;;;5.80;1.02;;;;;;;17.93;44.51;99601.56;5062110;28;20084;-44
2023/04/14 10:05:30;;;;;;;6.47;1.10;;;;;;;18.15;43.59;99606.44;5044886;28;20390;-47
2023/04/14 10:08:04;;;;;;;3.50;1.08;;;;;;;18.48;42.18;99610.34;5063408;28;20094;-44
2023/04/14 10:10:31;;;;;;;5.80;1.60;;;;;;;18.65;41.64;99606.44;5063498;28;20195;-45
2023/04/14 10:12:59;;;;;;;3.97;1.10;;;;;;;18.87;40.55;99614.47;5044998;28;20289;-48
2023/04/14 10:15:26;;;;;;;2.53;1.02;;;;;;;19.15;40.13;99608.31;5063231;28;20135;-45
2023/04/14 10:17:54;;;;;;;4.35;1.35;;;;;;;19.38;39.50;99614.69;5060746;28;20044;-48
2023/04/14 10:20:21;;;;;;;2.72;0.80;;;;;;;19.34;38.64;99615.97;5039997;28;20128;-46
2023/04/14 10:22:52;;;;;;;3.80;1.00;;;;;;;19.35;37.94;99615.53;5061002;28;20581;-45
2023/04/14 10:25:19;;;;;;;3.95;1.05;;;;;;;19.67;37.32;99612.06;5062174;28;20052;-45
2023/04/14 10:27:48;;;;;;;3.40;1.02;;;;;;;19.74;36.24;99620.38;5060198;28;20072;-44
2023/04/14 10:30:15;;;;;;;5.75;1.40;;;;;;;19.75;36.13;99633.16;5056906;28;20056;-46
2023/04/14 10:32:44;;;;;;;5.05;2.40;;;;;;;19.79;35.73;99633.09;5061020;28;20139;-44
2023/04/14 10:35:14;;;;;;;3.50;1.45;;;;;;;19.66;35.31;99644.22;5056726;28;20068;-45
2023/04/14 10:37:52;;;;;;;7.72;1.52;;;;;;;19.28;35.10;99631.72;5055830;28;20041;-45
2023/04/14 10:40:19;;;;;;;5.43;1.15;;;;;;;18.96;35.61;99642.75;5040625;28;20437;-45
2023/04/14 10:42:54;;;;;;;7.65;1.90;;;;;;;18.73;35.42;99638.75;5057749;28;22011;-44
2023/04/14 10:45:22;;;;;;;8.07;1.05;;;;;;;18.63;35.43;99647.34;5041895;28;20063;-47
2023/04/14 10:47:49;;;;;;;4.78;1.45;;;;;;;18.42;35.59;99642.84;5056318;28;21678;-48
2023/04/14 10:50:23;;;;;;;3.65;1.58;;;;;;;18.19;36.08;99640.78;5052277;28;20608;-46
2023/04/14 10:52:55;;;;;;;5.78;1.80;;;;;;;17.84;36.97;99637.72;5050868;28;20060;-45
2023/04/14 10:55:26;;;;;;;4.03;1.02;;;;;;;17.37;37.57;99651.47;5049117;28;20080;-48
2023/04/14 10:58:07;;;;;;;3.17;0.65;;;;;;;16.83;38.30;99658.03;5052824;28;20056;-48
2023/04/14 11:00:37;;;;;;;3.97;0.70;;;;;;;16.14;39.26;99656.16;5047744;28;20910;-51
2023/04/14 11:03:09;;;;;;;5.05;1.23;;;;;;;15.39;40.16;99654.09;5050632;28;20048;-50
2023/04/14 11:05:50;;;;;;;6.85;1.02;;;;;;;15.00;40.80;99651.44;5052027;28;20055;-49
2023/04/14 11:08:33;;;;;;;3.92;1.13;;;;;;;14.74;41.97;99658.25;5049855;28;20110;-54
2023/04/14 11:11:03;;;;;;;5.53;1.23;;;;;;;14.55;42.79;99658.66;5053600;28;20088;-57
2023/04/14 11:13:32;;;;;;;5.15;1.45;;;;;;;14.40;43.30;99663.41;5055270;28;20110;-47
2023/04/14 11:16:04;;;;;;;2.40;1.80;;;;;;;14.22;43.75;99672.91;5060760;28;20045;-50
2023/04/14 11:18:36;;;;;;;5.85;2.53;;;;;;;13.76;43.88;99662.47;5063099;28;20048;-48
2023/04/14 11:21:09;;;;;;;5.50;1.63;;;;;;;13.31;44.45;99669.44;5061781;28;20500;-46
2023/04/14 11:23:37;;;;;;;3.45;1.25;;;;;;;13.01;44.12;99685.50;5045320;28;20395;-48
2023/04/14 11:26:05;;;;;;;7.10;1.70;;;;;;;12.96;43.99;99694.22;5062629;28;20127;-49
2023/04/14 11:28:38;;;;;;;2.25;1.63;;;;;;;12.92;43.92;99678.72;5059971;28;20698;-51
2023/04/14 11:31:07;;;;;;;6.43;1.60;;;;;;;12.96;44.48;99688.66;5060492;28;20044;-46
2023/04/14 11:33:37;;;;;;;3.20;0.80;;;;;;;12.97;44.63;99693.03;5060922;28;20059;-49
2023/04/14 11:36:05;;;;;;;4.25;1.30;;;;;;;12.68;44.66;99702.34;5062295;28;20040;-53
2023/04/14 11:38:39;;;;;;;3.65;0.70;;;;;;;12.44;44.95;99698.16;5059324;28;20049;-47
2023/04/14 11:41:08;;;;;;;4.78;1.40;;;;;;;12.25;45.04;99706.69;5041319;28;20054;-50
2023/04/14 11:43:36;;;;;;;6.28;1.02;;;;;;;12.24;44.93;99710.66;5066753;28;20796;-48
2023/04/14 11:46:06;;;;;;;4.78;2.08;;;;;;;12.30;45.45;99703.56;5059850;28;20036;-46
2023/04/14 11:48:34;;;;;;;2.40;0.93;;;;;;;12.41;45.10;99707.25;5040338;28;20475;-48
2023/04/14 11:51:02;;;;;;;2.38;1.10;;;;;;;12.44;45.11;99712.06;5059331;28;20037;-47